sensor_id;sensor_type;location;lat;lon;timestamp;temperature;humidity
34766;DHT22;20984;43.508;1.504;2023-09-07T00:01:25;20.10;95.20
34766;DHT22;20984;43.508;1.504;2023-09-07T00:03:50;20.10;95.30
34766;DHT22;20984;43.508;1.504;2023-09-07T00:06:16;19.90;96.10
34766;DHT22;20984;43.508;1.504;2023-09-07T00:08:41;19.90;96.00
34766;DHT22;20984;43.508;1.504;2023-09-07T00:11:07;19.80;95.40
34766;DHT22;20984;43.508;1.504;2023-09-07T00:13:33;19.70;95.70
34766;DHT22;20984;43.508;1.504;2023-09-07T00:15:59;19.70;96.00
34766;DHT22;20984;43.508;1.504;2023-09-07T00:18:26;19.60;97.10
34766;DHT22;20984;43.508;1.504;2023-09-07T00:20:51;19.50;96.70
34766;DHT22;20984;43.508;1.504;2023-09-07T00:23:17;19.40;97.60
34766;DHT22;20984;43.508;1.504;2023-09-07T00:25:42;19.40;97.60
34766;DHT22;20984;43.508;1.504;2023-09-07T00:28:08;19.30;97.60
34766;DHT22;20984;43.508;1.504;2023-09-07T00:30:33;19.30;97.80
34766;DHT22;20984;43.508;1.504;2023-09-07T00:32:59;19.20;98.00
34766;DHT22;20984;43.508;1.504;2023-09-07T00:35:24;19.20;98.00
34766;DHT22;20984;43.508;1.504;2023-09-07T00:37:51;19.10;98.10
34766;DHT22;20984;43.508;1.504;2023-09-07T00:40:16;19.00;98.20
34766;DHT22;20984;43.508;1.504;2023-09-07T00:42:42;19.00;99.10
34766;DHT22;20984;43.508;1.504;2023-09-07T00:45:07;18.90;99.70
34766;DHT22;20984;43.508;1.504;2023-09-07T00:47:33;18.90;99.40
34766;DHT22;20984;43.508;1.504;2023-09-07T00:50:00;18.80;99.90
34766;DHT22;20984;43.508;1.504;2023-09-07T00:52:25;18.70;99.90
34766;DHT22;20984;43.508;1.504;2023-09-07T00:54:52;18.70;99.90
34766;DHT22;20984;43.508;1.504;2023-09-07T00:57:18;18.70;99.90
34766;DHT22;20984;43.508;1.504;2023-09-07T00:59:43;18.70;99.90
34766;DHT22;20984;43.508;1.504;2023-09-07T01:02:09;18.60;99.90
34766;DHT22;20984;43.508;1.504;2023-09-07T01:04:34;18.60;99.90
34766;DHT22;20984;43.508;1.504;2023-09-07T01:07:02;18.60;99.90
34766;DHT22;20984;43.508;1.504;2023-09-07T01:09:30;18.50;99.90
34766;DHT22;20984;43.508;1.504;2023-09-07T01:11:56;18.50;99.90
34766;DHT22;20984;43.508;1.504;2023-09-07T01:14:22;18.50;99.90
34766;DHT22;20984;43.508;1.504;2023-09-07T01:16:48;18.40;99.90
34766;DHT22;20984;43.508;1.504;2023-09-07T01:19:13;18.50;99.90
34766;DHT22;20984;43.508;1.504;2023-09-07T01:21:39;18.40;99.90
34766;DHT22;20984;43.508;1.504;2023-09-07T01:24:08;18.40;99.90
34766;DHT22;20984;43.508;1.504;2023-09-07T01:26:34;18.40;99.90
34766;DHT22;20984;43.508;1.504;2023-09-07T01:29:00;18.40;99.90
34766;DHT22;20984;43.508;1.504;2023-09-07T01:31:26;18.40;99.90
34766;DHT22;20984;43.508;1.504;2023-09-07T01:33:52;18.30;99.90
34766;DHT22;20984;43.508;1.504;2023-09-07T01:36:17;18.30;99.90
34766;DHT22;20984;43.508;1.504;2023-09-07T01:38:43;18.30;99.90
34766;DHT22;20984;43.508;1.504;2023-09-07T01:41:08;18.30;99.90
34766;DHT22;20984;43.508;1.504;2023-09-07T01:43:35;18.20;99.90
34766;DHT22;20984;43.508;1.504;2023-09-07T01:46:00;18.20;99.90
34766;DHT22;20984;43.508;1.504;2023-09-07T01:48:26;18.20;99.90
34766;DHT22;20984;43.508;1.504;2023-09-07T01:50:52;18.20;99.90
34766;DHT22;20984;43.508;1.504;2023-09-07T01:53:17;18.20;99.90
34766;DHT22;20984;43.508;1.504;2023-09-07T01:55:43;18.10;99.90
34766;DHT22;20984;43.508;1.504;2023-09-07T01:58:08;18.10;99.90
34766;DHT22;20984;43.508;1.504;2023-09-07T02:00:37;18.20;99.90
34766;DHT22;20984;43.508;1.504;2023-09-07T02:03:03;18.10;99.90
34766;DHT22;20984;43.508;1.504;2023-09-07T02:05:29;18.10;99.90
34766;DHT22;20984;43.508;1.504;2023-09-07T02:07:54;18.10;99.90
34766;DHT22;20984;43.508;1.504;2023-09-07T02:10:20;18.20;99.90
34766;DHT22;20984;43.508;1.504;2023-09-07T02:12:46;18.20;99.90
34766;DHT22;20984;43.508;1.504;2023-09-07T02:15:11;18.10;99.90
34766;DHT22;20984;43.508;1.504;2023-09-07T02:17:37;18.20;99.90
34766;DHT22;20984;43.508;1.504;2023-09-07T02:20:03;18.10;99.90
34766;DHT22;20984;43.508;1.504;2023-09-07T02:22:33;18.10;99.90
34766;DHT22;20984;43.508;1.504;2023-09-07T02:24:59;18.10;99.90
34766;DHT22;20984;43.508;1.504;2023-09-07T02:27:24;18.00;99.90
34766;DHT22;20984;43.508;1.504;2023-09-07T02:29:50;18.10;99.90
34766;DHT22;20984;43.508;1.504;2023-09-07T02:32:15;18.00;99.90
34766;DHT22;20984;43.508;1.504;2023-09-07T02:34:42;18.00;99.90
34766;DHT22;20984;43.508;1.504;2023-09-07T02:37:07;18.00;99.90
34766;DHT22;20984;43.508;1.504;2023-09-07T02:39:33;18.00;99.90
34766;DHT22;20984;43.508;1.504;2023-09-07T02:41:59;18.00;99.90
34766;DHT22;20984;43.508;1.504;2023-09-07T02:44:24;18.00;99.90
34766;DHT22;20984;43.508;1.504;2023-09-07T02:46:50;18.00;99.90
34766;DHT22;20984;43.508;1.504;2023-09-07T02:49:15;18.00;99.90
34766;DHT22;20984;43.508;1.504;2023-09-07T02:51:41;18.00;99.90
34766;DHT22;20984;43.508;1.504;2023-09-07T02:54:06;18.00;99.90
34766;DHT22;20984;43.508;1.504;2023-09-07T02:56:32;18.00;99.90
34766;DHT22;20984;43.508;1.504;2023-09-07T02:58:57;17.90;99.90
34766;DHT22;20984;43.508;1.504;2023-09-07T03:01:23;17.90;99.90
34766;DHT22;20984;43.508;1.504;2023-09-07T03:03:48;17.90;99.90
34766;DHT22;20984;43.508;1.504;2023-09-07T03:06:14;17.90;99.90
34766;DHT22;20984;43.508;1.504;2023-09-07T03:08:42;17.90;99.90
34766;DHT22;20984;43.508;1.504;2023-09-07T03:11:09;17.80;99.90
34766;DHT22;20984;43.508;1.504;2023-09-07T03:13:34;17.80;99.90
34766;DHT22;20984;43.508;1.504;2023-09-07T03:16:00;17.80;99.90
34766;DHT22;20984;43.508;1.504;2023-09-07T03:18:26;17.80;99.90
34766;DHT22;20984;43.508;1.504;2023-09-07T03:20:53;17.70;99.90
34766;DHT22;20984;43.508;1.504;2023-09-07T03:23:18;17.70;99.90
34766;DHT22;20984;43.508;1.504;2023-09-07T03:25:44;17.70;99.90
34766;DHT22;20984;43.508;1.504;2023-09-07T03:28:10;17.70;99.90
34766;DHT22;20984;43.508;1.504;2023-09-07T03:30:35;17.70;99.90
34766;DHT22;20984;43.508;1.504;2023-09-07T03:33:01;17.70;99.90
34766;DHT22;20984;43.508;1.504;2023-09-07T03:35:28;17.60;99.90
34766;DHT22;20984;43.508;1.504;2023-09-07T03:37:54;17.60;99.90
34766;DHT22;20984;43.508;1.504;2023-09-07T03:40:20;17.60;99.90
34766;DHT22;20984;43.508;1.504;2023-09-07T03:42:45;17.60;99.90
34766;DHT22;20984;43.508;1.504;2023-09-07T03:45:11;17.50;99.90
34766;DHT22;20984;43.508;1.504;2023-09-07T03:47:37;17.60;99.90
34766;DHT22;20984;43.508;1.504;2023-09-07T03:50:03;17.50;99.90
34766;DHT22;20984;43.508;1.504;2023-09-07T03:52:28;17.50;99.90
34766;DHT22;20984;43.508;1.504;2023-09-07T03:54:54;17.50;99.90
34766;DHT22;20984;43.508;1.504;2023-09-07T03:57:21;17.50;99.90
34766;DHT22;20984;43.508;1.504;2023-09-07T03:59:47;17.40;99.90
34766;DHT22;20984;43.508;1.504;2023-09-07T04:02:12;17.50;99.90
34766;DHT22;20984;43.508;1.504;2023-09-07T04:04:38;17.40;99.90
34766;DHT22;20984;43.508;1.504;2023-09-07T04:07:03;17.40;99.90
34766;DHT22;20984;43.508;1.504;2023-09-07T04:09:29;17.40;99.90
34766;DHT22;20984;43.508;1.504;2023-09-07T04:11:55;17.40;99.90
34766;DHT22;20984;43.508;1.504;2023-09-07T04:14:20;17.40;99.90
34766;DHT22;20984;43.508;1.504;2023-09-07T04:16:46;17.40;99.90
34766;DHT22;20984;43.508;1.504;2023-09-07T04:19:11;17.40;99.90
34766;DHT22;20984;43.508;1.504;2023-09-07T04:21:37;17.40;99.90
34766;DHT22;20984;43.508;1.504;2023-09-07T04:24:03;17.40;99.90
34766;DHT22;20984;43.508;1.504;2023-09-07T04:26:29;17.30;99.90
34766;DHT22;20984;43.508;1.504;2023-09-07T04:28:55;17.30;99.90
34766;DHT22;20984;43.508;1.504;2023-09-07T04:31:20;17.30;99.90
34766;DHT22;20984;43.508;1.504;2023-09-07T04:33:46;17.30;99.90
34766;DHT22;20984;43.508;1.504;2023-09-07T04:36:12;17.30;99.90
34766;DHT22;20984;43.508;1.504;2023-09-07T04:38:38;17.30;99.90
34766;DHT22;20984;43.508;1.504;2023-09-07T04:41:08;17.30;99.90
34766;DHT22;20984;43.508;1.504;2023-09-07T04:43:33;17.30;99.90
34766;DHT22;20984;43.508;1.504;2023-09-07T04:45:59;17.30;99.90
34766;DHT22;20984;43.508;1.504;2023-09-07T04:48:24;17.30;99.90
34766;DHT22;20984;43.508;1.504;2023-09-07T04:51:00;17.30;99.90
34766;DHT22;20984;43.508;1.504;2023-09-07T04:53:27;17.20;99.90
34766;DHT22;20984;43.508;1.504;2023-09-07T04:55:53;17.20;99.90
34766;DHT22;20984;43.508;1.504;2023-09-07T04:58:19;17.30;99.90
34766;DHT22;20984;43.508;1.504;2023-09-07T05:00:44;17.30;99.90
34766;DHT22;20984;43.508;1.504;2023-09-07T05:03:10;17.20;99.90
34766;DHT22;20984;43.508;1.504;2023-09-07T05:05:35;17.30;99.90
34766;DHT22;20984;43.508;1.504;2023-09-07T05:08:01;17.30;99.90
34766;DHT22;20984;43.508;1.504;2023-09-07T05:10:26;17.30;99.90
34766;DHT22;20984;43.508;1.504;2023-09-07T05:12:52;17.40;99.90
34766;DHT22;20984;43.508;1.504;2023-09-07T05:15:17;17.40;99.90
34766;DHT22;20984;43.508;1.504;2023-09-07T05:17:43;17.50;99.90
34766;DHT22;20984;43.508;1.504;2023-09-07T05:20:08;17.70;99.90
34766;DHT22;20984;43.508;1.504;2023-09-07T05:22:34;17.90;99.90
34766;DHT22;20984;43.508;1.504;2023-09-07T05:25:02;17.90;99.90
34766;DHT22;20984;43.508;1.504;2023-09-07T05:27:28;17.90;99.90
34766;DHT22;20984;43.508;1.504;2023-09-07T05:29:54;18.00;99.90
34766;DHT22;20984;43.508;1.504;2023-09-07T05:32:19;18.00;99.90
34766;DHT22;20984;43.508;1.504;2023-09-07T05:34:45;18.00;99.90
34766;DHT22;20984;43.508;1.504;2023-09-07T05:37:10;18.00;99.90
34766;DHT22;20984;43.508;1.504;2023-09-07T05:39:36;18.20;99.90
34766;DHT22;20984;43.508;1.504;2023-09-07T05:42:01;18.30;99.90
34766;DHT22;20984;43.508;1.504;2023-09-07T05:44:27;18.40;99.90
34766;DHT22;20984;43.508;1.504;2023-09-07T05:46:52;18.40;99.90
34766;DHT22;20984;43.508;1.504;2023-09-07T05:49:19;18.60;99.90
34766;DHT22;20984;43.508;1.504;2023-09-07T05:51:44;18.70;99.90
34766;DHT22;20984;43.508;1.504;2023-09-07T05:54:11;18.80;99.90
34766;DHT22;20984;43.508;1.504;2023-09-07T05:56:37;18.90;99.90
34766;DHT22;20984;43.508;1.504;2023-09-07T05:59:02;19.10;99.90
34766;DHT22;20984;43.508;1.504;2023-09-07T06:01:28;19.30;99.90
34766;DHT22;20984;43.508;1.504;2023-09-07T06:03:53;19.30;99.90
34766;DHT22;20984;43.508;1.504;2023-09-07T06:06:19;19.50;99.90
34766;DHT22;20984;43.508;1.504;2023-09-07T06:08:45;19.60;99.90
34766;DHT22;20984;43.508;1.504;2023-09-07T06:11:10;19.60;99.90
34766;DHT22;20984;43.508;1.504;2023-09-07T06:13:36;19.60;99.90
34766;DHT22;20984;43.508;1.504;2023-09-07T06:16:01;19.70;99.90
34766;DHT22;20984;43.508;1.504;2023-09-07T06:18:28;19.80;99.90
34766;DHT22;20984;43.508;1.504;2023-09-07T06:20:54;19.80;99.90
34766;DHT22;20984;43.508;1.504;2023-09-07T06:23:19;19.90;99.90
34766;DHT22;20984;43.508;1.504;2023-09-07T06:25:45;19.90;99.90
34766;DHT22;20984;43.508;1.504;2023-09-07T06:28:10;20.00;99.90
34766;DHT22;20984;43.508;1.504;2023-09-07T06:30:36;20.10;99.90
34766;DHT22;20984;43.508;1.504;2023-09-07T06:33:01;20.20;99.90
34766;DHT22;20984;43.508;1.504;2023-09-07T06:35:27;20.20;99.90
34766;DHT22;20984;43.508;1.504;2023-09-07T06:37:52;20.30;99.90
34766;DHT22;20984;43.508;1.504;2023-09-07T06:40:18;20.40;99.90
34766;DHT22;20984;43.508;1.504;2023-09-07T06:42:44;20.50;99.90
34766;DHT22;20984;43.508;1.504;2023-09-07T06:45:10;20.50;99.90
34766;DHT22;20984;43.508;1.504;2023-09-07T06:47:35;20.60;99.90
34766;DHT22;20984;43.508;1.504;2023-09-07T06:50:01;20.60;99.90
34766;DHT22;20984;43.508;1.504;2023-09-07T06:52:27;20.70;99.90
34766;DHT22;20984;43.508;1.504;2023-09-07T06:54:53;20.70;99.90
34766;DHT22;20984;43.508;1.504;2023-09-07T06:57:19;20.70;99.90
34766;DHT22;20984;43.508;1.504;2023-09-07T06:59:44;20.90;99.90
34766;DHT22;20984;43.508;1.504;2023-09-07T07:02:10;21.00;99.90
34766;DHT22;20984;43.508;1.504;2023-09-07T07:04:35;21.00;99.90
34766;DHT22;20984;43.508;1.504;2023-09-07T07:07:01;21.10;99.90
34766;DHT22;20984;43.508;1.504;2023-09-07T07:09:32;21.20;99.90
34766;DHT22;20984;43.508;1.504;2023-09-07T07:12:00;21.20;99.90
34766;DHT22;20984;43.508;1.504;2023-09-07T07:14:26;21.30;99.90
34766;DHT22;20984;43.508;1.504;2023-09-07T07:16:52;21.40;99.90
34766;DHT22;20984;43.508;1.504;2023-09-07T07:19:17;21.50;99.90
34766;DHT22;20984;43.508;1.504;2023-09-07T07:21:43;21.60;99.90
34766;DHT22;20984;43.508;1.504;2023-09-07T07:24:08;21.70;99.90
34766;DHT22;20984;43.508;1.504;2023-09-07T07:26:34;21.70;99.90
34766;DHT22;20984;43.508;1.504;2023-09-07T07:28:59;21.70;99.90
34766;DHT22;20984;43.508;1.504;2023-09-07T07:31:25;21.80;99.90
34766;DHT22;20984;43.508;1.504;2023-09-07T07:33:50;21.90;99.90
34766;DHT22;20984;43.508;1.504;2023-09-07T07:36:16;22.00;99.90
34766;DHT22;20984;43.508;1.504;2023-09-07T07:38:41;22.00;99.90
34766;DHT22;20984;43.508;1.504;2023-09-07T07:41:07;22.10;99.60
34766;DHT22;20984;43.508;1.504;2023-09-07T07:43:33;22.20;99.90
34766;DHT22;20984;43.508;1.504;2023-09-07T07:45:59;22.30;99.60
34766;DHT22;20984;43.508;1.504;2023-09-07T07:48:24;22.30;99.90
34766;DHT22;20984;43.508;1.504;2023-09-07T07:50:50;22.40;99.50
34766;DHT22;20984;43.508;1.504;2023-09-07T07:53:16;22.50;99.40
34766;DHT22;20984;43.508;1.504;2023-09-07T07:55:41;22.60;99.80
34766;DHT22;20984;43.508;1.504;2023-09-07T07:58:07;22.70;98.80
34766;DHT22;20984;43.508;1.504;2023-09-07T08:00:33;22.80;99.00
34766;DHT22;20984;43.508;1.504;2023-09-07T08:03:00;22.80;98.10
34766;DHT22;20984;43.508;1.504;2023-09-07T08:05:27;22.90;98.10
34766;DHT22;20984;43.508;1.504;2023-09-07T08:07:53;23.00;98.80
34766;DHT22;20984;43.508;1.504;2023-09-07T08:10:18;23.10;97.90
34766;DHT22;20984;43.508;1.504;2023-09-07T08:12:44;23.20;97.80
34766;DHT22;20984;43.508;1.504;2023-09-07T08:15:10;23.30;97.20
34766;DHT22;20984;43.508;1.504;2023-09-07T08:17:35;23.50;97.70
34766;DHT22;20984;43.508;1.504;2023-09-07T08:20:01;23.60;96.30
34766;DHT22;20984;43.508;1.504;2023-09-07T08:22:28;23.70;96.50
34766;DHT22;20984;43.508;1.504;2023-09-07T08:24:54;23.80;96.40
34766;DHT22;20984;43.508;1.504;2023-09-07T08:27:20;23.80;96.00
34766;DHT22;20984;43.508;1.504;2023-09-07T08:29:46;24.00;95.90
34766;DHT22;20984;43.508;1.504;2023-09-07T08:32:13;24.00;95.60
34766;DHT22;20984;43.508;1.504;2023-09-07T08:34:39;24.20;95.60
34766;DHT22;20984;43.508;1.504;2023-09-07T08:37:06;24.30;96.00
34766;DHT22;20984;43.508;1.504;2023-09-07T08:39:34;24.40;94.70
34766;DHT22;20984;43.508;1.504;2023-09-07T08:42:00;24.40;94.30
34766;DHT22;20984;43.508;1.504;2023-09-07T08:44:26;24.40;94.10
34766;DHT22;20984;43.508;1.504;2023-09-07T08:46:52;24.40;94.70
34766;DHT22;20984;43.508;1.504;2023-09-07T08:49:18;24.60;94.50
34766;DHT22;20984;43.508;1.504;2023-09-07T08:51:48;24.60;94.60
34766;DHT22;20984;43.508;1.504;2023-09-07T08:54:14;24.80;93.90
34766;DHT22;20984;43.508;1.504;2023-09-07T08:56:39;24.90;93.80
34766;DHT22;20984;43.508;1.504;2023-09-07T08:59:05;24.90;93.40
34766;DHT22;20984;43.508;1.504;2023-09-07T09:01:31;25.00;93.40
34766;DHT22;20984;43.508;1.504;2023-09-07T09:03:58;25.00;93.10
34766;DHT22;20984;43.508;1.504;2023-09-07T09:06:23;25.10;93.00
34766;DHT22;20984;43.508;1.504;2023-09-07T09:08:58;25.20;92.70
34766;DHT22;20984;43.508;1.504;2023-09-07T09:11:24;25.30;92.60
34766;DHT22;20984;43.508;1.504;2023-09-07T09:13:50;25.40;92.50
34766;DHT22;20984;43.508;1.504;2023-09-07T09:16:16;25.40;91.90
34766;DHT22;20984;43.508;1.504;2023-09-07T09:18:51;25.50;92.30
34766;DHT22;20984;43.508;1.504;2023-09-07T09:21:18;25.50;91.90
34766;DHT22;20984;43.508;1.504;2023-09-07T09:23:47;25.50;92.60
34766;DHT22;20984;43.508;1.504;2023-09-07T09:26:12;25.70;91.20
34766;DHT22;20984;43.508;1.504;2023-09-07T09:28:38;25.80;92.60
34766;DHT22;20984;43.508;1.504;2023-09-07T09:31:04;25.90;91.70
34766;DHT22;20984;43.508;1.504;2023-09-07T09:33:30;25.80;91.50
34766;DHT22;20984;43.508;1.504;2023-09-07T09:35:56;25.90;91.80
34766;DHT22;20984;43.508;1.504;2023-09-07T09:38:22;25.90;91.60
34766;DHT22;20984;43.508;1.504;2023-09-07T09:40:47;26.00;91.30
34766;DHT22;20984;43.508;1.504;2023-09-07T09:43:13;26.10;91.70
34766;DHT22;20984;43.508;1.504;2023-09-07T09:45:39;26.10;91.50
34766;DHT22;20984;43.508;1.504;2023-09-07T09:48:04;26.20;90.90
34766;DHT22;20984;43.508;1.504;2023-09-07T09:50:30;26.30;91.20
34766;DHT22;20984;43.508;1.504;2023-09-07T09:52:57;26.40;91.40
34766;DHT22;20984;43.508;1.504;2023-09-07T09:55:23;26.40;91.40
34766;DHT22;20984;43.508;1.504;2023-09-07T09:57:49;26.50;90.80
34766;DHT22;20984;43.508;1.504;2023-09-07T10:00:15;26.50;90.80
34766;DHT22;20984;43.508;1.504;2023-09-07T10:05:19;26.60;90.80
34766;DHT22;20984;43.508;1.504;2023-09-07T10:07:48;26.60;90.90
34766;DHT22;20984;43.508;1.504;2023-09-07T10:10:14;26.70;90.80
34766;DHT22;20984;43.508;1.504;2023-09-07T10:12:50;26.80;90.50
34766;DHT22;20984;43.508;1.504;2023-09-07T10:15:22;26.90;90.40
34766;DHT22;20984;43.508;1.504;2023-09-07T10:17:48;26.90;90.10
34766;DHT22;20984;43.508;1.504;2023-09-07T10:20:18;27.00;88.20
34766;DHT22;20984;43.508;1.504;2023-09-07T10:22:44;27.10;89.00
34766;DHT22;20984;43.508;1.504;2023-09-07T10:25:22;27.00;87.30
34766;DHT22;20984;43.508;1.504;2023-09-07T10:27:48;27.00;88.10
34766;DHT22;20984;43.508;1.504;2023-09-07T10:30:14;27.20;87.20
34766;DHT22;20984;43.508;1.504;2023-09-07T10:32:44;27.20;88.10
34766;DHT22;20984;43.508;1.504;2023-09-07T10:35:13;27.30;88.90
34766;DHT22;20984;43.508;1.504;2023-09-07T10:37:40;27.40;89.10
34766;DHT22;20984;43.508;1.504;2023-09-07T10:40:06;27.40;87.00
34766;DHT22;20984;43.508;1.504;2023-09-07T10:42:37;27.60;87.80
34766;DHT22;20984;43.508;1.504;2023-09-07T10:45:12;27.60;86.70
34766;DHT22;20984;43.508;1.504;2023-09-07T10:47:41;27.50;90.20
34766;DHT22;20984;43.508;1.504;2023-09-07T10:50:07;27.60;88.80
34766;DHT22;20984;43.508;1.504;2023-09-07T10:52:33;27.70;87.60
34766;DHT22;20984;43.508;1.504;2023-09-07T10:54:59;27.80;88.10
34766;DHT22;20984;43.508;1.504;2023-09-07T10:57:24;27.80;88.90
34766;DHT22;20984;43.508;1.504;2023-09-07T10:59:50;27.90;86.90
34766;DHT22;20984;43.508;1.504;2023-09-07T11:02:20;27.90;85.80
34766;DHT22;20984;43.508;1.504;2023-09-07T11:04:45;28.00;87.80
34766;DHT22;20984;43.508;1.504;2023-09-07T11:07:11;28.00;86.80
34766;DHT22;20984;43.508;1.504;2023-09-07T11:09:43;28.10;86.50
34766;DHT22;20984;43.508;1.504;2023-09-07T11:12:12;28.00;84.80
34766;DHT22;20984;43.508;1.504;2023-09-07T11:14:38;28.10;85.10
34766;DHT22;20984;43.508;1.504;2023-09-07T11:17:04;28.00;85.10
34766;DHT22;20984;43.508;1.504;2023-09-07T11:19:33;28.00;84.30
34766;DHT22;20984;43.508;1.504;2023-09-07T11:21:59;28.10;85.40
34766;DHT22;20984;43.508;1.504;2023-09-07T11:24:24;28.10;84.90
34766;DHT22;20984;43.508;1.504;2023-09-07T11:26:51;28.20;84.50
34766;DHT22;20984;43.508;1.504;2023-09-07T11:29:17;28.20;85.30
34766;DHT22;20984;43.508;1.504;2023-09-07T11:31:44;28.40;85.10
34766;DHT22;20984;43.508;1.504;2023-09-07T11:34:13;28.50;85.80
34766;DHT22;20984;43.508;1.504;2023-09-07T11:36:41;28.50;84.50
34766;DHT22;20984;43.508;1.504;2023-09-07T11:39:07;28.60;83.60
34766;DHT22;20984;43.508;1.504;2023-09-07T11:41:38;28.70;83.90
34766;DHT22;20984;43.508;1.504;2023-09-07T11:44:04;28.70;82.80
34766;DHT22;20984;43.508;1.504;2023-09-07T11:46:29;28.90;82.70
34766;DHT22;20984;43.508;1.504;2023-09-07T11:48:55;28.90;82.50
34766;DHT22;20984;43.508;1.504;2023-09-07T11:51:21;29.00;82.60
34766;DHT22;20984;43.508;1.504;2023-09-07T11:53:47;29.00;84.90
34766;DHT22;20984;43.508;1.504;2023-09-07T11:56:12;29.20;82.00
34766;DHT22;20984;43.508;1.504;2023-09-07T11:58:38;29.20;81.40
34766;DHT22;20984;43.508;1.504;2023-09-07T12:01:03;29.10;80.70
34766;DHT22;20984;43.508;1.504;2023-09-07T12:03:29;29.10;81.80
34766;DHT22;20984;43.508;1.504;2023-09-07T12:05:56;29.10;80.40
34766;DHT22;20984;43.508;1.504;2023-09-07T12:08:21;29.10;80.60
34766;DHT22;20984;43.508;1.504;2023-09-07T12:10:47;29.10;80.60
34766;DHT22;20984;43.508;1.504;2023-09-07T12:13:12;29.20;81.20
34766;DHT22;20984;43.508;1.504;2023-09-07T12:15:38;29.30;81.70
34766;DHT22;20984;43.508;1.504;2023-09-07T12:18:04;29.40;80.40
34766;DHT22;20984;43.508;1.504;2023-09-07T12:20:29;29.30;79.80
34766;DHT22;20984;43.508;1.504;2023-09-07T12:22:55;29.40;80.90
34766;DHT22;20984;43.508;1.504;2023-09-07T12:25:20;29.50;81.70
34766;DHT22;20984;43.508;1.504;2023-09-07T12:27:46;29.70;79.40
34766;DHT22;20984;43.508;1.504;2023-09-07T12:30:12;29.60;77.50
34766;DHT22;20984;43.508;1.504;2023-09-07T12:32:41;29.50;78.60
34766;DHT22;20984;43.508;1.504;2023-09-07T12:35:07;29.50;78.70
34766;DHT22;20984;43.508;1.504;2023-09-07T12:37:34;29.70;77.80
34766;DHT22;20984;43.508;1.504;2023-09-07T12:40:00;29.80;77.30
34766;DHT22;20984;43.508;1.504;2023-09-07T12:42:26;29.80;76.30
34766;DHT22;20984;43.508;1.504;2023-09-07T12:44:51;29.90;75.30
34766;DHT22;20984;43.508;1.504;2023-09-07T12:47:17;29.90;75.10
34766;DHT22;20984;43.508;1.504;2023-09-07T12:49:42;29.90;75.20
34766;DHT22;20984;43.508;1.504;2023-09-07T12:52:08;30.00;75.80
34766;DHT22;20984;43.508;1.504;2023-09-07T12:54:35;30.10;73.50
34766;DHT22;20984;43.508;1.504;2023-09-07T12:57:02;30.10;74.50
34766;DHT22;20984;43.508;1.504;2023-09-07T12:59:28;30.10;73.60
34766;DHT22;20984;43.508;1.504;2023-09-07T13:01:54;30.20;73.30
34766;DHT22;20984;43.508;1.504;2023-09-07T13:04:21;30.20;74.00
34766;DHT22;20984;43.508;1.504;2023-09-07T13:06:47;30.20;73.60
34766;DHT22;20984;43.508;1.504;2023-09-07T13:09:12;30.20;73.20
34766;DHT22;20984;43.508;1.504;2023-09-07T13:11:38;30.30;73.10
34766;DHT22;20984;43.508;1.504;2023-09-07T13:14:04;30.30;70.90
34766;DHT22;20984;43.508;1.504;2023-09-07T13:16:30;30.40;71.00
34766;DHT22;20984;43.508;1.504;2023-09-07T13:18:57;30.50;69.30
34766;DHT22;20984;43.508;1.504;2023-09-07T13:21:23;30.50;70.40
34766;DHT22;20984;43.508;1.504;2023-09-07T13:23:49;30.60;69.70
34766;DHT22;20984;43.508;1.504;2023-09-07T13:26:14;30.60;68.60
34766;DHT22;20984;43.508;1.504;2023-09-07T13:28:40;30.70;71.00
34766;DHT22;20984;43.508;1.504;2023-09-07T13:31:06;30.70;70.50
34766;DHT22;20984;43.508;1.504;2023-09-07T13:33:31;30.80;69.60
34766;DHT22;20984;43.508;1.504;2023-09-07T13:35:57;30.80;68.90
34766;DHT22;20984;43.508;1.504;2023-09-07T13:38:23;30.90;71.40
34766;DHT22;20984;43.508;1.504;2023-09-07T13:40:48;31.00;70.80
34766;DHT22;20984;43.508;1.504;2023-09-07T13:43:14;31.10;68.70
34766;DHT22;20984;43.508;1.504;2023-09-07T13:45:40;31.10;69.10
34766;DHT22;20984;43.508;1.504;2023-09-07T13:48:05;31.10;69.60
34766;DHT22;20984;43.508;1.504;2023-09-07T13:50:31;31.20;68.60
34766;DHT22;20984;43.508;1.504;2023-09-07T13:52:57;31.20;69.30
34766;DHT22;20984;43.508;1.504;2023-09-07T13:55:22;31.20;70.20
34766;DHT22;20984;43.508;1.504;2023-09-07T13:57:48;31.20;68.30
34766;DHT22;20984;43.508;1.504;2023-09-07T14:00:14;31.30;67.80
34766;DHT22;20984;43.508;1.504;2023-09-07T14:02:39;31.30;66.80
34766;DHT22;20984;43.508;1.504;2023-09-07T14:05:05;31.40;66.30
34766;DHT22;20984;43.508;1.504;2023-09-07T14:07:31;31.40;65.10
34766;DHT22;20984;43.508;1.504;2023-09-07T14:09:56;31.50;67.40
34766;DHT22;20984;43.508;1.504;2023-09-07T14:12:22;31.60;67.00
34766;DHT22;20984;43.508;1.504;2023-09-07T14:14:48;31.70;65.50
34766;DHT22;20984;43.508;1.504;2023-09-07T14:17:14;31.70;67.10
34766;DHT22;20984;43.508;1.504;2023-09-07T14:19:40;31.60;64.90
34766;DHT22;20984;43.508;1.504;2023-09-07T14:22:05;31.70;64.80
34766;DHT22;20984;43.508;1.504;2023-09-07T14:24:31;31.80;65.00
34766;DHT22;20984;43.508;1.504;2023-09-07T14:26:56;31.70;65.20
34766;DHT22;20984;43.508;1.504;2023-09-07T14:29:22;31.70;62.70
34766;DHT22;20984;43.508;1.504;2023-09-07T14:31:47;31.80;62.20
34766;DHT22;20984;43.508;1.504;2023-09-07T14:34:13;31.80;61.90
34766;DHT22;20984;43.508;1.504;2023-09-07T14:36:39;31.70;62.40
34766;DHT22;20984;43.508;1.504;2023-09-07T14:39:07;31.70;64.60
34766;DHT22;20984;43.508;1.504;2023-09-07T14:41:36;31.80;64.00
34766;DHT22;20984;43.508;1.504;2023-09-07T14:44:02;31.80;63.90
34766;DHT22;20984;43.508;1.504;2023-09-07T14:46:27;31.90;63.50
34766;DHT22;20984;43.508;1.504;2023-09-07T14:48:53;32.00;65.80
34766;DHT22;20984;43.508;1.504;2023-09-07T14:51:18;32.30;63.10
34766;DHT22;20984;43.508;1.504;2023-09-07T14:53:44;33.10;61.30
34766;DHT22;20984;43.508;1.504;2023-09-07T14:56:10;33.90;60.40
34766;DHT22;20984;43.508;1.504;2023-09-07T14:58:36;34.00;60.30
34766;DHT22;20984;43.508;1.504;2023-09-07T15:01:01;34.60;61.70
34766;DHT22;20984;43.508;1.504;2023-09-07T15:03:28;35.10;57.90
34766;DHT22;20984;43.508;1.504;2023-09-07T15:05:54;36.00;57.60
34766;DHT22;20984;43.508;1.504;2023-09-07T15:08:20;36.10;56.80
34766;DHT22;20984;43.508;1.504;2023-09-07T15:10:45;36.00;56.60
34766;DHT22;20984;43.508;1.504;2023-09-07T15:13:11;35.50;57.00
34766;DHT22;20984;43.508;1.504;2023-09-07T15:15:36;35.60;57.00
34766;DHT22;20984;43.508;1.504;2023-09-07T15:18:05;35.80;56.00
34766;DHT22;20984;43.508;1.504;2023-09-07T15:20:31;36.00;57.50
34766;DHT22;20984;43.508;1.504;2023-09-07T15:22:56;35.90;55.70
34766;DHT22;20984;43.508;1.504;2023-09-07T15:25:22;36.10;56.40